Terminal Aerodrome Forecast
Issued by NWS Billings, MT

Home | Current Version | Previous Version | Text Only | Print | Product List | Glossary On
Versions: 1 2 3 4 5 6 7 8 9 10 11 12 13 14 15 16 17 18 19 20 21 22 23 24 25 26 27 28 29
554
FTUS45 KBYZ 121129
TAFMLS
TAF
KMLS 121129Z 1212/1312 00000KT P6SM VCFG OVC015
     FM121700 07005KT P6SM BKN025 OVC050
     FM121900 10010KT P6SM VCSH SCT030 BKN060
     FM130200 13008KT P6SM SCT020 SCT100=

USA.gov is the U.S. government's official web portal to all federal, state and local government web resources and services.